Startpagina
METAR-TAF:

METAR-TAF

Vliegvelden :

Pohnpei, Micronesië

breedte: 06-59N, lengte: 158-12E, hoogte: 2 m

Actueel weer

Dit bericht is 1 uur en het 4 minuten geleden gemaakt, om 09:58 UTC
Wind 15 kt uit het oostnoordoosten
Temperatuur 28°C
Vochtigheid 84%
Druk 1011 hPa
Zicht: 24.1 km
Gebroken wolken op 1700 ft, Stapelwolken.
Geheel bewolkt op 30000 ft

METAR: PTPN 260958Z 07015KT 15SM BKN017TCU OVC300 28/25 A2986 RMK TCU SE-SW

Tijdstip: 22:02 (11:02 UTC)

Verwachting

Dit bericht is 2 uur en het 44 minuten geleden gemaakt, om 08:18 UTC
Verwachting geldig van 26 om 08 UTC tot 27 om 06 UTC
Wind 15 kt uit het oostnoordoosten
Zicht: 10 km
Verspreide wolken op 1800 ft
Verspreide wolken op 4000 ft
buien in de omgeving
Tijdelijke
van 26 om 08 UTC tot 26 om 12 UTC
Gebroken wolken op 1800 ft
Gebroken wolken op 4000 ft
lichte regenbuien

TAF: PTPN 260818Z 2608/2706 07015KT P6SM VCSH SCT018 SCT040 TEMPO 2608/2612 -SHRA BKN018 BKN040

Waarnemingen en weersverwachtingen van meer dan 4000 vliegvelden (METAR en TAF).

De beschikbare stations zijn de gele en rode punten op de kaart.

Ga met uw muis naar het station om de naam te zien.

Klik dan om waarnemingen en weersverwachtingen te zien.

kaart wijzigen: klik op de groene knoppen met een zwart kruis om in te zoomen, op de groene knop met een streepje om uit te zoomen of op de groene pijlen voor aangrenzende kaarten.


METAR-TAF: